sensor_id;sensor_type;location;lat;lon;timestamp;P1;durP1;ratioP1;P2;durP2;ratioP2
12665;SDS011;58531;59.050;17.416;2022-09-09T00:00:46;0.70;;;0.70;;
12665;SDS011;58531;59.050;17.416;2022-09-09T00:03:16;0.80;;;0.80;;
12665;SDS011;58531;59.050;17.416;2022-09-09T00:05:48;1.27;;;0.70;;
12665;SDS011;58531;59.050;17.416;2022-09-09T00:08:25;1.40;;;1.00;;
12665;SDS011;58531;59.050;17.416;2022-09-09T00:11:00;0.60;;;0.60;;
12665;SDS011;58531;59.050;17.416;2022-09-09T00:13:33;0.60;;;0.60;;
12665;SDS011;58531;59.050;17.416;2022-09-09T00:16:04;0.63;;;0.63;;
12665;SDS011;58531;59.050;17.416;2022-09-09T00:18:50;0.73;;;0.70;;
12665;SDS011;58531;59.050;17.416;2022-09-09T00:21:24;0.60;;;0.60;;
12665;SDS011;58531;59.050;17.416;2022-09-09T00:23:58;0.93;;;0.70;;
12665;SDS011;58531;59.050;17.416;2022-09-09T00:26:32;0.70;;;0.70;;
12665;SDS011;58531;59.050;17.416;2022-09-09T00:29:05;0.80;;;0.70;;
12665;SDS011;58531;59.050;17.416;2022-09-09T00:31:40;0.90;;;0.60;;
12665;SDS011;58531;59.050;17.416;2022-09-09T00:34:09;0.43;;;0.43;;
12665;SDS011;58531;59.050;17.416;2022-09-09T00:36:39;0.73;;;0.70;;
12665;SDS011;58531;59.050;17.416;2022-09-09T00:39:13;1.57;;;0.60;;
12665;SDS011;58531;59.050;17.416;2022-09-09T00:41:55;1.40;;;0.80;;
12665;SDS011;58531;59.050;17.416;2022-09-09T00:44:36;0.93;;;0.60;;
12665;SDS011;58531;59.050;17.416;2022-09-09T00:47:08;0.50;;;0.50;;
12665;SDS011;58531;59.050;17.416;2022-09-09T00:49:47;0.83;;;0.70;;
12665;SDS011;58531;59.050;17.416;2022-09-09T00:52:27;0.80;;;0.60;;
12665;SDS011;58531;59.050;17.416;2022-09-09T00:55:05;0.53;;;0.53;;
12665;SDS011;58531;59.050;17.416;2022-09-09T00:57:40;0.97;;;0.60;;
12665;SDS011;58531;59.050;17.416;2022-09-09T01:00:18;1.03;;;0.63;;
12665;SDS011;58531;59.050;17.416;2022-09-09T01:05:51;0.80;;;0.40;;
12665;SDS011;58531;59.050;17.416;2022-09-09T01:11:47;0.40;;;0.40;;
12665;SDS011;58531;59.050;17.416;2022-09-09T01:14:24;0.43;;;0.43;;
12665;SDS011;58531;59.050;17.416;2022-09-09T01:17:06;0.70;;;0.57;;
12665;SDS011;58531;59.050;17.416;2022-09-09T01:19:42;0.40;;;0.40;;
12665;SDS011;58531;59.050;17.416;2022-09-09T01:22:18;1.37;;;0.70;;
12665;SDS011;58531;59.050;17.416;2022-09-09T01:25:07;0.50;;;0.50;;
12665;SDS011;58531;59.050;17.416;2022-09-09T01:27:57;0.77;;;0.70;;
12665;SDS011;58531;59.050;17.416;2022-09-09T01:30:27;0.40;;;0.40;;
12665;SDS011;58531;59.050;17.416;2022-09-09T01:32:55;0.93;;;0.50;;
12665;SDS011;58531;59.050;17.416;2022-09-09T01:35:35;0.50;;;0.50;;
12665;SDS011;58531;59.050;17.416;2022-09-09T01:38:09;0.50;;;0.50;;
12665;SDS011;58531;59.050;17.416;2022-09-09T01:40:36;1.50;;;0.60;;
12665;SDS011;58531;59.050;17.416;2022-09-09T01:43:04;1.10;;;0.60;;
12665;SDS011;58531;59.050;17.416;2022-09-09T01:45:32;1.40;;;0.53;;
12665;SDS011;58531;59.050;17.416;2022-09-09T01:48:00;0.50;;;0.50;;
12665;SDS011;58531;59.050;17.416;2022-09-09T01:50:28;1.40;;;0.50;;
12665;SDS011;58531;59.050;17.416;2022-09-09T01:52:56;2.43;;;0.60;;
12665;SDS011;58531;59.050;17.416;2022-09-09T01:55:28;1.10;;;0.50;;
12665;SDS011;58531;59.050;17.416;2022-09-09T01:57:59;1.03;;;0.63;;
12665;SDS011;58531;59.050;17.416;2022-09-09T02:00:48;0.80;;;0.50;;
12665;SDS011;58531;59.050;17.416;2022-09-09T02:03:23;1.30;;;0.50;;
12665;SDS011;58531;59.050;17.416;2022-09-09T02:05:55;0.53;;;0.53;;
12665;SDS011;58531;59.050;17.416;2022-09-09T02:08:33;1.50;;;0.57;;
12665;SDS011;58531;59.050;17.416;2022-09-09T02:11:06;0.60;;;0.50;;
12665;SDS011;58531;59.050;17.416;2022-09-09T02:13:39;0.50;;;0.50;;
12665;SDS011;58531;59.050;17.416;2022-09-09T02:16:10;0.50;;;0.50;;
12665;SDS011;58531;59.050;17.416;2022-09-09T02:18:44;1.07;;;0.50;;
12665;SDS011;58531;59.050;17.416;2022-09-09T02:21:17;1.70;;;0.57;;
12665;SDS011;58531;59.050;17.416;2022-09-09T02:23:44;1.80;;;0.57;;
12665;SDS011;58531;59.050;17.416;2022-09-09T02:26:14;0.73;;;0.50;;
12665;SDS011;58531;59.050;17.416;2022-09-09T02:28:48;0.73;;;0.70;;
12665;SDS011;58531;59.050;17.416;2022-09-09T02:31:17;2.20;;;0.60;;
12665;SDS011;58531;59.050;17.416;2022-09-09T02:33:47;0.50;;;0.50;;
12665;SDS011;58531;59.050;17.416;2022-09-09T02:36:20;0.60;;;0.50;;
12665;SDS011;58531;59.050;17.416;2022-09-09T02:38:50;0.53;;;0.53;;
12665;SDS011;58531;59.050;17.416;2022-09-09T02:41:19;0.73;;;0.60;;
12665;SDS011;58531;59.050;17.416;2022-09-09T02:43:49;1.23;;;0.50;;
12665;SDS011;58531;59.050;17.416;2022-09-09T02:46:22;0.87;;;0.70;;
12665;SDS011;58531;59.050;17.416;2022-09-09T02:48:59;0.60;;;0.60;;
12665;SDS011;58531;59.050;17.416;2022-09-09T02:51:32;0.63;;;0.60;;
12665;SDS011;58531;59.050;17.416;2022-09-09T02:54:07;1.60;;;0.70;;
12665;SDS011;58531;59.050;17.416;2022-09-09T02:56:43;0.60;;;0.60;;
12665;SDS011;58531;59.050;17.416;2022-09-09T02:59:16;0.93;;;0.57;;
12665;SDS011;58531;59.050;17.416;2022-09-09T03:01:43;2.73;;;0.80;;
12665;SDS011;58531;59.050;17.416;2022-09-09T03:04:10;1.17;;;0.60;;
12665;SDS011;58531;59.050;17.416;2022-09-09T03:06:36;1.10;;;0.73;;
12665;SDS011;58531;59.050;17.416;2022-09-09T03:09:03;1.03;;;0.60;;
12665;SDS011;58531;59.050;17.416;2022-09-09T03:11:30;1.10;;;0.80;;
12665;SDS011;58531;59.050;17.416;2022-09-09T03:13:57;1.83;;;0.67;;
12665;SDS011;58531;59.050;17.416;2022-09-09T03:16:25;1.17;;;1.07;;
12665;SDS011;58531;59.050;17.416;2022-09-09T03:18:52;0.50;;;0.50;;
12665;SDS011;58531;59.050;17.416;2022-09-09T03:21:19;2.13;;;0.67;;
12665;SDS011;58531;59.050;17.416;2022-09-09T03:23:45;3.47;;;0.80;;
12665;SDS011;58531;59.050;17.416;2022-09-09T03:26:12;1.00;;;0.70;;
12665;SDS011;58531;59.050;17.416;2022-09-09T03:28:40;0.80;;;0.73;;
12665;SDS011;58531;59.050;17.416;2022-09-09T03:31:07;1.17;;;0.60;;
12665;SDS011;58531;59.050;17.416;2022-09-09T03:33:36;0.80;;;0.73;;
12665;SDS011;58531;59.050;17.416;2022-09-09T03:36:03;0.80;;;0.70;;
12665;SDS011;58531;59.050;17.416;2022-09-09T03:38:30;0.93;;;0.70;;
12665;SDS011;58531;59.050;17.416;2022-09-09T03:40:58;3.13;;;0.87;;
12665;SDS011;58531;59.050;17.416;2022-09-09T03:43:26;0.90;;;0.77;;
12665;SDS011;58531;59.050;17.416;2022-09-09T03:45:54;2.20;;;0.70;;
12665;SDS011;58531;59.050;17.416;2022-09-09T03:48:22;1.07;;;0.70;;
12665;SDS011;58531;59.050;17.416;2022-09-09T03:50:51;1.00;;;0.90;;
12665;SDS011;58531;59.050;17.416;2022-09-09T03:53:20;0.97;;;0.70;;
12665;SDS011;58531;59.050;17.416;2022-09-09T03:55:50;1.80;;;0.60;;
12665;SDS011;58531;59.050;17.416;2022-09-09T03:58:20;1.93;;;0.80;;
12665;SDS011;58531;59.050;17.416;2022-09-09T04:00:58;0.80;;;0.80;;
12665;SDS011;58531;59.050;17.416;2022-09-09T04:03:26;2.63;;;0.60;;
12665;SDS011;58531;59.050;17.416;2022-09-09T04:05:55;1.57;;;0.67;;
12665;SDS011;58531;59.050;17.416;2022-09-09T04:08:23;3.40;;;1.63;;
12665;SDS011;58531;59.050;17.416;2022-09-09T04:10:52;1.67;;;0.97;;
12665;SDS011;58531;59.050;17.416;2022-09-09T04:13:23;1.10;;;0.87;;
12665;SDS011;58531;59.050;17.416;2022-09-09T04:15:51;1.47;;;0.90;;
12665;SDS011;58531;59.050;17.416;2022-09-09T04:18:18;1.00;;;0.77;;
12665;SDS011;58531;59.050;17.416;2022-09-09T04:20:46;1.00;;;0.73;;
12665;SDS011;58531;59.050;17.416;2022-09-09T04:23:14;1.03;;;0.70;;
12665;SDS011;58531;59.050;17.416;2022-09-09T04:25:43;1.53;;;0.70;;
12665;SDS011;58531;59.050;17.416;2022-09-09T04:28:12;2.27;;;0.90;;
12665;SDS011;58531;59.050;17.416;2022-09-09T04:30:39;0.70;;;0.70;;
12665;SDS011;58531;59.050;17.416;2022-09-09T04:33:06;1.10;;;0.67;;
12665;SDS011;58531;59.050;17.416;2022-09-09T04:35:34;1.83;;;1.30;;
12665;SDS011;58531;59.050;17.416;2022-09-09T04:38:01;1.37;;;1.10;;
12665;SDS011;58531;59.050;17.416;2022-09-09T04:40:30;0.60;;;0.60;;
12665;SDS011;58531;59.050;17.416;2022-09-09T04:42:58;2.03;;;0.80;;
12665;SDS011;58531;59.050;17.416;2022-09-09T04:45:24;0.70;;;0.70;;
12665;SDS011;58531;59.050;17.416;2022-09-09T04:47:52;2.87;;;0.90;;
12665;SDS011;58531;59.050;17.416;2022-09-09T04:50:18;0.90;;;0.90;;
12665;SDS011;58531;59.050;17.416;2022-09-09T04:52:45;0.70;;;0.70;;
12665;SDS011;58531;59.050;17.416;2022-09-09T04:55:12;1.27;;;0.83;;
12665;SDS011;58531;59.050;17.416;2022-09-09T04:57:41;1.97;;;0.80;;
12665;SDS011;58531;59.050;17.416;2022-09-09T05:00:08;0.70;;;0.70;;
12665;SDS011;58531;59.050;17.416;2022-09-09T05:02:36;2.03;;;0.70;;
12665;SDS011;58531;59.050;17.416;2022-09-09T05:05:04;1.80;;;1.00;;
12665;SDS011;58531;59.050;17.416;2022-09-09T05:07:31;0.63;;;0.60;;
12665;SDS011;58531;59.050;17.416;2022-09-09T05:09:58;1.97;;;0.70;;
12665;SDS011;58531;59.050;17.416;2022-09-09T05:12:24;0.87;;;0.60;;
12665;SDS011;58531;59.050;17.416;2022-09-09T05:14:53;0.83;;;0.67;;
12665;SDS011;58531;59.050;17.416;2022-09-09T05:17:19;0.57;;;0.50;;
12665;SDS011;58531;59.050;17.416;2022-09-09T05:19:46;2.10;;;1.30;;
12665;SDS011;58531;59.050;17.416;2022-09-09T05:22:17;0.70;;;0.70;;
12665;SDS011;58531;59.050;17.416;2022-09-09T05:24:45;1.87;;;0.70;;
12665;SDS011;58531;59.050;17.416;2022-09-09T05:27:12;2.67;;;0.70;;
12665;SDS011;58531;59.050;17.416;2022-09-09T05:29:38;1.13;;;0.60;;
12665;SDS011;58531;59.050;17.416;2022-09-09T05:32:07;0.60;;;0.53;;
12665;SDS011;58531;59.050;17.416;2022-09-09T05:34:35;0.40;;;0.40;;
12665;SDS011;58531;59.050;17.416;2022-09-09T05:37:02;1.50;;;0.50;;
12665;SDS011;58531;59.050;17.416;2022-09-09T05:39:29;2.73;;;0.67;;
12665;SDS011;58531;59.050;17.416;2022-09-09T05:41:58;0.83;;;0.50;;
12665;SDS011;58531;59.050;17.416;2022-09-09T05:44:24;1.80;;;0.40;;
12665;SDS011;58531;59.050;17.416;2022-09-09T05:46:52;0.67;;;0.47;;
12665;SDS011;58531;59.050;17.416;2022-09-09T05:49:21;1.10;;;0.60;;
12665;SDS011;58531;59.050;17.416;2022-09-09T05:51:47;0.50;;;0.50;;
12665;SDS011;58531;59.050;17.416;2022-09-09T05:54:15;4.50;;;1.10;;
12665;SDS011;58531;59.050;17.416;2022-09-09T05:56:42;0.80;;;0.60;;
12665;SDS011;58531;59.050;17.416;2022-09-09T05:59:09;2.30;;;0.70;;
12665;SDS011;58531;59.050;17.416;2022-09-09T06:01:37;0.63;;;0.60;;
12665;SDS011;58531;59.050;17.416;2022-09-09T06:04:05;0.90;;;0.60;;
12665;SDS011;58531;59.050;17.416;2022-09-09T06:06:35;1.93;;;0.60;;
12665;SDS011;58531;59.050;17.416;2022-09-09T06:09:04;0.83;;;0.53;;
12665;SDS011;58531;59.050;17.416;2022-09-09T06:11:35;2.10;;;0.60;;
12665;SDS011;58531;59.050;17.416;2022-09-09T06:14:03;1.37;;;0.70;;
12665;SDS011;58531;59.050;17.416;2022-09-09T06:16:31;1.20;;;0.60;;
12665;SDS011;58531;59.050;17.416;2022-09-09T06:18:58;1.30;;;0.70;;
12665;SDS011;58531;59.050;17.416;2022-09-09T06:21:26;0.90;;;0.70;;
12665;SDS011;58531;59.050;17.416;2022-09-09T06:23:56;1.10;;;0.60;;
12665;SDS011;58531;59.050;17.416;2022-09-09T06:26:24;1.20;;;0.60;;
12665;SDS011;58531;59.050;17.416;2022-09-09T06:28:52;0.60;;;0.60;;
12665;SDS011;58531;59.050;17.416;2022-09-09T06:31:20;1.20;;;0.60;;
12665;SDS011;58531;59.050;17.416;2022-09-09T06:33:48;2.47;;;0.80;;
12665;SDS011;58531;59.050;17.416;2022-09-09T06:36:16;1.70;;;0.70;;
12665;SDS011;58531;59.050;17.416;2022-09-09T06:38:44;0.77;;;0.60;;
12665;SDS011;58531;59.050;17.416;2022-09-09T06:41:13;0.73;;;0.60;;
12665;SDS011;58531;59.050;17.416;2022-09-09T06:43:42;1.27;;;0.70;;
12665;SDS011;58531;59.050;17.416;2022-09-09T06:46:09;1.33;;;0.80;;
12665;SDS011;58531;59.050;17.416;2022-09-09T06:48:38;0.77;;;0.50;;
12665;SDS011;58531;59.050;17.416;2022-09-09T06:51:07;1.50;;;0.70;;
12665;SDS011;58531;59.050;17.416;2022-09-09T06:53:36;1.47;;;0.60;;
12665;SDS011;58531;59.050;17.416;2022-09-09T06:56:16;2.40;;;0.60;;
12665;SDS011;58531;59.050;17.416;2022-09-09T06:58:45;1.97;;;0.83;;
12665;SDS011;58531;59.050;17.416;2022-09-09T07:01:14;1.17;;;0.50;;
12665;SDS011;58531;59.050;17.416;2022-09-09T07:03:42;2.43;;;0.67;;
12665;SDS011;58531;59.050;17.416;2022-09-09T07:06:13;0.50;;;0.50;;
12665;SDS011;58531;59.050;17.416;2022-09-09T07:08:42;1.23;;;0.50;;
12665;SDS011;58531;59.050;17.416;2022-09-09T07:11:09;0.97;;;0.50;;
12665;SDS011;58531;59.050;17.416;2022-09-09T07:13:38;1.10;;;0.73;;
12665;SDS011;58531;59.050;17.416;2022-09-09T07:16:05;0.80;;;0.70;;
12665;SDS011;58531;59.050;17.416;2022-09-09T07:18:34;1.43;;;0.53;;
12665;SDS011;58531;59.050;17.416;2022-09-09T07:21:01;2.10;;;0.87;;
12665;SDS011;58531;59.050;17.416;2022-09-09T07:23:29;1.70;;;0.67;;
12665;SDS011;58531;59.050;17.416;2022-09-09T07:25:56;1.90;;;0.60;;
12665;SDS011;58531;59.050;17.416;2022-09-09T07:28:23;1.23;;;0.70;;
12665;SDS011;58531;59.050;17.416;2022-09-09T07:30:55;1.50;;;0.60;;
12665;SDS011;58531;59.050;17.416;2022-09-09T07:33:23;0.70;;;0.70;;
12665;SDS011;58531;59.050;17.416;2022-09-09T07:35:50;2.67;;;0.70;;
12665;SDS011;58531;59.050;17.416;2022-09-09T07:38:18;2.30;;;0.57;;
12665;SDS011;58531;59.050;17.416;2022-09-09T07:40:45;1.67;;;0.70;;
12665;SDS011;58531;59.050;17.416;2022-09-09T07:43:12;0.60;;;0.50;;
12665;SDS011;58531;59.050;17.416;2022-09-09T07:45:39;1.50;;;0.80;;
12665;SDS011;58531;59.050;17.416;2022-09-09T07:48:08;1.20;;;0.50;;
12665;SDS011;58531;59.050;17.416;2022-09-09T07:50:36;0.80;;;0.43;;
12665;SDS011;58531;59.050;17.416;2022-09-09T07:53:02;3.17;;;0.70;;
12665;SDS011;58531;59.050;17.416;2022-09-09T07:55:31;0.60;;;0.50;;
12665;SDS011;58531;59.050;17.416;2022-09-09T07:57:58;2.17;;;0.70;;
12665;SDS011;58531;59.050;17.416;2022-09-09T08:00:24;0.60;;;0.60;;
12665;SDS011;58531;59.050;17.416;2022-09-09T08:02:53;1.77;;;0.60;;
12665;SDS011;58531;59.050;17.416;2022-09-09T08:05:21;1.50;;;0.60;;
12665;SDS011;58531;59.050;17.416;2022-09-09T08:07:48;2.03;;;0.77;;
12665;SDS011;58531;59.050;17.416;2022-09-09T08:10:15;0.93;;;0.60;;
12665;SDS011;58531;59.050;17.416;2022-09-09T08:12:43;2.30;;;0.80;;
12665;SDS011;58531;59.050;17.416;2022-09-09T08:15:10;1.30;;;0.70;;
12665;SDS011;58531;59.050;17.416;2022-09-09T08:17:37;0.90;;;0.70;;
12665;SDS011;58531;59.050;17.416;2022-09-09T08:20:04;0.90;;;0.70;;
12665;SDS011;58531;59.050;17.416;2022-09-09T08:22:33;1.40;;;0.50;;
12665;SDS011;58531;59.050;17.416;2022-09-09T08:25:01;0.87;;;0.50;;
12665;SDS011;58531;59.050;17.416;2022-09-09T08:27:31;1.43;;;0.50;;
12665;SDS011;58531;59.050;17.416;2022-09-09T08:29:58;1.77;;;0.60;;
12665;SDS011;58531;59.050;17.416;2022-09-09T08:32:25;2.20;;;0.90;;
12665;SDS011;58531;59.050;17.416;2022-09-09T08:34:52;0.97;;;0.80;;
12665;SDS011;58531;59.050;17.416;2022-09-09T08:37:19;1.77;;;0.60;;
12665;SDS011;58531;59.050;17.416;2022-09-09T08:39:48;1.00;;;0.60;;
12665;SDS011;58531;59.050;17.416;2022-09-09T08:42:22;0.80;;;0.63;;
12665;SDS011;58531;59.050;17.416;2022-09-09T08:45:00;0.77;;;0.50;;
12665;SDS011;58531;59.050;17.416;2022-09-09T08:47:39;0.60;;;0.57;;
12665;SDS011;58531;59.050;17.416;2022-09-09T08:50:17;1.00;;;0.90;;
12665;SDS011;58531;59.050;17.416;2022-09-09T08:52:51;1.00;;;0.67;;
12665;SDS011;58531;59.050;17.416;2022-09-09T08:55:29;0.90;;;0.50;;
12665;SDS011;58531;59.050;17.416;2022-09-09T08:58:08;0.87;;;0.37;;
12665;SDS011;58531;59.050;17.416;2022-09-09T09:00:41;1.07;;;0.60;;
12665;SDS011;58531;59.050;17.416;2022-09-09T09:03:28;1.10;;;0.70;;
12665;SDS011;58531;59.050;17.416;2022-09-09T09:06:12;2.37;;;0.57;;
12665;SDS011;58531;59.050;17.416;2022-09-09T09:08:50;1.83;;;0.60;;
12665;SDS011;58531;59.050;17.416;2022-09-09T09:11:26;0.83;;;0.67;;
12665;SDS011;58531;59.050;17.416;2022-09-09T09:13:54;2.23;;;0.50;;
12665;SDS011;58531;59.050;17.416;2022-09-09T09:16:26;1.50;;;0.70;;
12665;SDS011;58531;59.050;17.416;2022-09-09T09:18:57;1.10;;;0.47;;
12665;SDS011;58531;59.050;17.416;2022-09-09T09:21:27;1.77;;;0.60;;
12665;SDS011;58531;59.050;17.416;2022-09-09T09:24:02;1.03;;;0.60;;
12665;SDS011;58531;59.050;17.416;2022-09-09T09:26:35;1.90;;;0.60;;
12665;SDS011;58531;59.050;17.416;2022-09-09T09:29:07;2.70;;;0.90;;
12665;SDS011;58531;59.050;17.416;2022-09-09T09:31:37;1.67;;;0.83;;
12665;SDS011;58531;59.050;17.416;2022-09-09T09:34:04;0.67;;;0.60;;
12665;SDS011;58531;59.050;17.416;2022-09-09T09:36:35;0.80;;;0.70;;
12665;SDS011;58531;59.050;17.416;2022-09-09T09:39:07;2.80;;;0.80;;
12665;SDS011;58531;59.050;17.416;2022-09-09T09:41:36;1.30;;;0.90;;
12665;SDS011;58531;59.050;17.416;2022-09-09T09:44:18;0.57;;;0.53;;
12665;SDS011;58531;59.050;17.416;2022-09-09T09:46:49;2.10;;;0.60;;
12665;SDS011;58531;59.050;17.416;2022-09-09T09:49:16;1.47;;;0.53;;
12665;SDS011;58531;59.050;17.416;2022-09-09T09:51:43;1.03;;;0.60;;
12665;SDS011;58531;59.050;17.416;2022-09-09T09:54:14;1.40;;;0.83;;
12665;SDS011;58531;59.050;17.416;2022-09-09T09:56:50;1.77;;;0.70;;
12665;SDS011;58531;59.050;17.416;2022-09-09T09:59:24;0.70;;;0.70;;
12665;SDS011;58531;59.050;17.416;2022-09-09T10:02:13;0.97;;;0.60;;
12665;SDS011;58531;59.050;17.416;2022-09-09T10:04:41;2.40;;;1.00;;
12665;SDS011;58531;59.050;17.416;2022-09-09T10:07:10;1.70;;;0.70;;
12665;SDS011;58531;59.050;17.416;2022-09-09T10:09:37;0.73;;;0.60;;
12665;SDS011;58531;59.050;17.416;2022-09-09T10:12:08;0.80;;;0.53;;
12665;SDS011;58531;59.050;17.416;2022-09-09T10:14:46;1.23;;;0.80;;
12665;SDS011;58531;59.050;17.416;2022-09-09T10:17:25;0.80;;;0.60;;
12665;SDS011;58531;59.050;17.416;2022-09-09T10:20:10;1.43;;;0.60;;
12665;SDS011;58531;59.050;17.416;2022-09-09T10:22:50;1.10;;;0.60;;
12665;SDS011;58531;59.050;17.416;2022-09-09T10:25:23;2.00;;;0.70;;
12665;SDS011;58531;59.050;17.416;2022-09-09T10:28:08;1.37;;;0.60;;
12665;SDS011;58531;59.050;17.416;2022-09-09T10:30:55;2.47;;;0.43;;
12665;SDS011;58531;59.050;17.416;2022-09-09T10:33:32;0.83;;;0.63;;
12665;SDS011;58531;59.050;17.416;2022-09-09T10:36:11;2.00;;;0.77;;
12665;SDS011;58531;59.050;17.416;2022-09-09T10:38:44;2.53;;;0.70;;
12665;SDS011;58531;59.050;17.416;2022-09-09T10:41:19;0.90;;;0.60;;
12665;SDS011;58531;59.050;17.416;2022-09-09T10:52:45;1.33;;;0.70;;
12665;SDS011;58531;59.050;17.416;2022-09-09T10:55:23;0.73;;;0.73;;
12665;SDS011;58531;59.050;17.416;2022-09-09T10:57:53;1.20;;;0.70;;
12665;SDS011;58531;59.050;17.416;2022-09-09T11:00:25;1.57;;;0.70;;
12665;SDS011;58531;59.050;17.416;2022-09-09T11:02:58;1.27;;;0.80;;
12665;SDS011;58531;59.050;17.416;2022-09-09T11:05:28;4.13;;;1.13;;
12665;SDS011;58531;59.050;17.416;2022-09-09T11:07:59;0.83;;;0.60;;
12665;SDS011;58531;59.050;17.416;2022-09-09T11:10:30;1.73;;;0.73;;
12665;SDS011;58531;59.050;17.416;2022-09-09T11:13:06;1.30;;;0.80;;
12665;SDS011;58531;59.050;17.416;2022-09-09T11:15:43;1.03;;;0.80;;
12665;SDS011;58531;59.050;17.416;2022-09-09T11:18:13;2.07;;;1.10;;
12665;SDS011;58531;59.050;17.416;2022-09-09T11:20:46;1.03;;;0.70;;
12665;SDS011;58531;59.050;17.416;2022-09-09T11:23:16;0.73;;;0.73;;
12665;SDS011;58531;59.050;17.416;2022-09-09T11:25:50;1.73;;;0.90;;
12665;SDS011;58531;59.050;17.416;2022-09-09T11:28:26;0.97;;;0.63;;
12665;SDS011;58531;59.050;17.416;2022-09-09T11:31:11;1.77;;;0.90;;
12665;SDS011;58531;59.050;17.416;2022-09-09T11:34:13;1.70;;;0.80;;
12665;SDS011;58531;59.050;17.416;2022-09-09T11:37:23;0.80;;;0.80;;
12665;SDS011;58531;59.050;17.416;2022-09-09T11:40:09;1.70;;;0.77;;
12665;SDS011;58531;59.050;17.416;2022-09-09T11:42:43;1.43;;;0.97;;
12665;SDS011;58531;59.050;17.416;2022-09-09T11:45:11;0.87;;;0.80;;
12665;SDS011;58531;59.050;17.416;2022-09-09T11:47:52;1.17;;;0.90;;
12665;SDS011;58531;59.050;17.416;2022-09-09T11:50:28;1.57;;;1.10;;
12665;SDS011;58531;59.050;17.416;2022-09-09T11:53:04;1.70;;;1.10;;
12665;SDS011;58531;59.050;17.416;2022-09-09T11:55:46;2.83;;;0.83;;
12665;SDS011;58531;59.050;17.416;2022-09-09T11:58:16;1.10;;;1.00;;
12665;SDS011;58531;59.050;17.416;2022-09-09T12:00:46;1.13;;;1.03;;
12665;SDS011;58531;59.050;17.416;2022-09-09T12:06:11;1.83;;;1.13;;
12665;SDS011;58531;59.050;17.416;2022-09-09T12:08:44;1.80;;;1.17;;
12665;SDS011;58531;59.050;17.416;2022-09-09T12:11:23;1.20;;;1.10;;
12665;SDS011;58531;59.050;17.416;2022-09-09T12:13:54;1.30;;;1.10;;
12665;SDS011;58531;59.050;17.416;2022-09-09T12:16:32;1.27;;;1.00;;
12665;SDS011;58531;59.050;17.416;2022-09-09T12:19:06;2.73;;;0.90;;
12665;SDS011;58531;59.050;17.416;2022-09-09T12:21:41;1.27;;;1.00;;
12665;SDS011;58531;59.050;17.416;2022-09-09T12:24:15;3.67;;;1.00;;
12665;SDS011;58531;59.050;17.416;2022-09-09T12:26:50;2.63;;;1.30;;
12665;SDS011;58531;59.050;17.416;2022-09-09T12:29:24;1.47;;;0.90;;
12665;SDS011;58531;59.050;17.416;2022-09-09T12:31:56;1.20;;;0.77;;
12665;SDS011;58531;59.050;17.416;2022-09-09T12:34:39;1.47;;;1.10;;
12665;SDS011;58531;59.050;17.416;2022-09-09T12:37:14;1.80;;;1.10;;
12665;SDS011;58531;59.050;17.416;2022-09-09T12:39:45;2.53;;;1.10;;
12665;SDS011;58531;59.050;17.416;2022-09-09T12:42:16;2.50;;;0.90;;
12665;SDS011;58531;59.050;17.416;2022-09-09T12:44:54;2.47;;;1.03;;
12665;SDS011;58531;59.050;17.416;2022-09-09T12:47:23;2.83;;;1.17;;
12665;SDS011;58531;59.050;17.416;2022-09-09T12:49:55;2.73;;;1.10;;
12665;SDS011;58531;59.050;17.416;2022-09-09T12:52:25;3.00;;;1.13;;
12665;SDS011;58531;59.050;17.416;2022-09-09T12:54:56;2.00;;;1.17;;
12665;SDS011;58531;59.050;17.416;2022-09-09T12:57:25;2.60;;;1.23;;
12665;SDS011;58531;59.050;17.416;2022-09-09T13:00:03;2.50;;;1.20;;
12665;SDS011;58531;59.050;17.416;2022-09-09T13:02:34;1.47;;;1.00;;
12665;SDS011;58531;59.050;17.416;2022-09-09T13:05:13;2.60;;;1.50;;
12665;SDS011;58531;59.050;17.416;2022-09-09T13:07:42;2.00;;;1.17;;
12665;SDS011;58531;59.050;17.416;2022-09-09T13:10:10;2.67;;;1.10;;
12665;SDS011;58531;59.050;17.416;2022-09-09T13:12:37;1.20;;;0.90;;
12665;SDS011;58531;59.050;17.416;2022-09-09T13:15:05;2.57;;;1.10;;
12665;SDS011;58531;59.050;17.416;2022-09-09T13:17:48;1.67;;;1.20;;
12665;SDS011;58531;59.050;17.416;2022-09-09T13:20:19;1.27;;;1.10;;
12665;SDS011;58531;59.050;17.416;2022-09-09T13:22:47;2.70;;;1.30;;
12665;SDS011;58531;59.050;17.416;2022-09-09T13:25:19;2.73;;;1.43;;
12665;SDS011;58531;59.050;17.416;2022-09-09T13:27:59;4.20;;;1.20;;
12665;SDS011;58531;59.050;17.416;2022-09-09T13:30:29;2.37;;;1.20;;
12665;SDS011;58531;59.050;17.416;2022-09-09T13:33:20;3.37;;;1.20;;
12665;SDS011;58531;59.050;17.416;2022-09-09T13:35:51;1.57;;;1.00;;
12665;SDS011;58531;59.050;17.416;2022-09-09T13:38:21;1.20;;;1.10;;
12665;SDS011;58531;59.050;17.416;2022-09-09T13:40:56;1.20;;;1.00;;
12665;SDS011;58531;59.050;17.416;2022-09-09T13:43:27;2.30;;;1.13;;
12665;SDS011;58531;59.050;17.416;2022-09-09T13:45:55;1.47;;;1.00;;
12665;SDS011;58531;59.050;17.416;2022-09-09T13:48:24;2.07;;;1.20;;
12665;SDS011;58531;59.050;17.416;2022-09-09T13:53:54;1.70;;;1.20;;
12665;SDS011;58531;59.050;17.416;2022-09-09T13:56:22;1.93;;;0.97;;
12665;SDS011;58531;59.050;17.416;2022-09-09T13:58:49;1.60;;;0.97;;
12665;SDS011;58531;59.050;17.416;2022-09-09T14:01:16;2.13;;;1.10;;
12665;SDS011;58531;59.050;17.416;2022-09-09T14:03:43;1.57;;;1.00;;
12665;SDS011;58531;59.050;17.416;2022-09-09T14:06:10;2.23;;;1.10;;
12665;SDS011;58531;59.050;17.416;2022-09-09T14:08:39;2.50;;;1.00;;
12665;SDS011;58531;59.050;17.416;2022-09-09T14:11:07;1.83;;;1.13;;
12665;SDS011;58531;59.050;17.416;2022-09-09T14:13:38;1.50;;;1.00;;
12665;SDS011;58531;59.050;17.416;2022-09-09T14:16:05;2.83;;;1.30;;
12665;SDS011;58531;59.050;17.416;2022-09-09T14:18:32;2.10;;;1.33;;
12665;SDS011;58531;59.050;17.416;2022-09-09T14:20:59;2.43;;;1.00;;
12665;SDS011;58531;59.050;17.416;2022-09-09T14:23:27;1.50;;;1.03;;
12665;SDS011;58531;59.050;17.416;2022-09-09T14:25:56;1.40;;;1.07;;
12665;SDS011;58531;59.050;17.416;2022-09-09T14:28:22;1.23;;;1.00;;
12665;SDS011;58531;59.050;17.416;2022-09-09T14:30:50;2.43;;;1.20;;
12665;SDS011;58531;59.050;17.416;2022-09-09T14:33:17;1.80;;;1.20;;
12665;SDS011;58531;59.050;17.416;2022-09-09T14:35:44;1.90;;;1.20;;
12665;SDS011;58531;59.050;17.416;2022-09-09T14:38:10;1.20;;;1.10;;
12665;SDS011;58531;59.050;17.416;2022-09-09T14:40:37;1.67;;;1.10;;
12665;SDS011;58531;59.050;17.416;2022-09-09T14:43:06;3.70;;;1.27;;
12665;SDS011;58531;59.050;17.416;2022-09-09T14:45:32;3.20;;;1.13;;
12665;SDS011;58531;59.050;17.416;2022-09-09T14:48:02;1.87;;;1.10;;
12665;SDS011;58531;59.050;17.416;2022-09-09T14:50:29;2.43;;;1.20;;
12665;SDS011;58531;59.050;17.416;2022-09-09T14:52:56;2.43;;;1.20;;
12665;SDS011;58531;59.050;17.416;2022-09-09T14:55:23;1.30;;;1.20;;
12665;SDS011;58531;59.050;17.416;2022-09-09T14:57:50;1.43;;;1.20;;
12665;SDS011;58531;59.050;17.416;2022-09-09T15:00:18;2.60;;;0.93;;
12665;SDS011;58531;59.050;17.416;2022-09-09T15:02:45;1.27;;;1.07;;
12665;SDS011;58531;59.050;17.416;2022-09-09T15:05:12;1.40;;;1.20;;
12665;SDS011;58531;59.050;17.416;2022-09-09T15:07:40;1.60;;;1.13;;
12665;SDS011;58531;59.050;17.416;2022-09-09T15:10:07;2.60;;;1.33;;
12665;SDS011;58531;59.050;17.416;2022-09-09T15:12:35;1.53;;;1.00;;
12665;SDS011;58531;59.050;17.416;2022-09-09T15:15:02;1.40;;;1.20;;
12665;SDS011;58531;59.050;17.416;2022-09-09T15:17:30;0.77;;;0.77;;